Terminal Aerodrome Forecast
Issued by NWS

Home | Current Version | Previous Version | Text Only | Print | Product List | Glossary On
Versions: 1 2 3 4 5 6 7 8 9 10 11 12 13 14 15 16 17 18 19 20
484
FTUS44 KBMX 302339
TAFTCL
TAF
KTCL 302339Z 3100/3124 VRB04KT P6SM BKN150
      TEMPO 3110/3113 5SM BR
     FM311500 24006KT P6SM SCT050 SCT250
     FM311700 23007KT P6SM VCTS BKN050CB=

USA.gov is the U.S. government's official web portal to all federal, state and local government web resources and services.